createdAt,value
2022-08-01T00:00:09.406Z,2.38
2022-08-01T00:02:38.962Z,2.28
2022-08-01T00:05:07.192Z,2.20
2022-08-01T00:07:35.294Z,2.35
2022-08-01T00:10:06.853Z,2.55
2022-08-01T00:12:33.497Z,2.72
2022-08-01T00:15:00.246Z,2.35
2022-08-01T00:17:27.049Z,2.67
2022-08-01T00:19:55.756Z,2.90
2022-08-01T00:22:22.428Z,2.40
2022-08-01T00:24:49.370Z,2.42
2022-08-01T00:27:16.090Z,2.63
2022-08-01T00:30:11.523Z,2.80
2022-08-01T00:32:33.256Z,2.70
2022-08-01T00:35:00.094Z,2.50
2022-08-01T00:37:26.935Z,2.45
2022-08-01T00:39:53.656Z,2.72
2022-08-01T00:42:20.356Z,2.40
2022-08-01T00:44:47.916Z,2.60
2022-08-01T00:47:14.617Z,2.72
2022-08-01T00:49:41.447Z,2.42
2022-08-01T00:52:09.952Z,2.60
2022-08-01T00:54:36.983Z,2.83
2022-08-01T00:57:04.014Z,2.88
2022-08-01T00:59:31.267Z,2.83
2022-08-01T01:01:58.675Z,2.67
2022-08-01T01:04:26.639Z,2.30
2022-08-01T01:07:05.181Z,2.35
2022-08-01T01:09:41.688Z,3.17
2022-08-01T01:12:17.903Z,2.60
2022-08-01T01:15:27.684Z,3.08
2022-08-01T01:18:03.944Z,2.50
2022-08-01T01:20:38.933Z,2.80
2022-08-01T01:23:35.581Z,3.00
2022-08-01T01:26:08.035Z,2.67
2022-08-01T01:28:36.268Z,2.50
2022-08-01T01:31:05.009Z,2.70
2022-08-01T01:33:34.289Z,2.38
2022-08-01T01:36:11.369Z,2.78
2022-08-01T01:38:43.670Z,2.80
2022-08-01T01:41:13.950Z,2.75
2022-08-01T01:43:41.471Z,2.78
2022-08-01T01:46:10.190Z,2.60
2022-08-01T01:48:38.427Z,2.67
2022-08-01T01:51:05.920Z,2.78
2022-08-01T01:53:35.799Z,2.20
2022-08-01T01:56:03.674Z,2.88
2022-08-01T01:58:33.941Z,2.30
2022-08-01T02:01:03.621Z,3.40
2022-08-01T02:03:32.486Z,2.53
2022-08-01T02:06:01.661Z,2.30
2022-08-01T02:08:31.700Z,2.63
2022-08-01T02:11:23.042Z,3.38
2022-08-01T02:13:56.654Z,2.88
2022-08-01T02:16:27.031Z,2.97
2022-08-01T02:18:54.154Z,2.75
2022-08-01T02:21:38.273Z,2.42
2022-08-01T02:24:14.551Z,2.53
2022-08-01T02:26:45.353Z,2.80
2022-08-01T02:29:17.745Z,2.85
2022-08-01T02:31:47.988Z,2.72
2022-08-01T02:34:18.257Z,2.53
2022-08-01T02:36:47.565Z,3.03
2022-08-01T02:39:17.167Z,2.53
2022-08-01T02:41:48.959Z,2.60
2022-08-01T02:44:26.052Z,2.58
2022-08-01T02:46:57.853Z,2.33
2022-08-01T02:49:27.083Z,2.75
2022-08-01T02:51:55.457Z,2.38
2022-08-01T02:54:23.672Z,2.83
2022-08-01T02:56:52.714Z,2.65
2022-08-01T02:59:22.529Z,2.65
2022-08-01T03:01:51.087Z,2.63
2022-08-01T03:04:19.758Z,2.70
2022-08-01T03:06:48.042Z,2.65
2022-08-01T03:09:16.591Z,2.80
2022-08-01T03:11:44.969Z,2.65
2022-08-01T03:14:13.713Z,2.88
2022-08-01T03:16:43.299Z,2.28
2022-08-01T03:19:13.018Z,2.80
2022-08-01T03:21:41.722Z,2.88
2022-08-01T03:24:10.811Z,2.72
2022-08-01T03:26:39.276Z,3.13
2022-08-01T03:29:10.804Z,2.70
2022-08-01T03:31:39.175Z,2.60
2022-08-01T03:34:07.107Z,2.78
2022-08-01T03:36:38.246Z,2.83
2022-08-01T03:39:09.282Z,3.13
2022-08-01T03:41:41.617Z,2.83
2022-08-01T03:44:14.266Z,2.72
2022-08-01T03:46:45.858Z,2.47
2022-08-01T03:49:19.531Z,2.65
2022-08-01T03:51:50.366Z,2.88
2022-08-01T03:54:24.439Z,2.67
2022-08-01T03:56:52.786Z,2.95
2022-08-01T03:59:21.393Z,3.03
2022-08-01T04:01:49.832Z,3.13
2022-08-01T04:04:16.856Z,2.40
2022-08-01T04:06:46.641Z,2.75
2022-08-01T04:09:14.028Z,2.80
2022-08-01T04:11:42.102Z,3.03
2022-08-01T04:14:09.356Z,3.00
2022-08-01T04:16:36.349Z,3.22
2022-08-01T04:19:03.387Z,3.00
2022-08-01T04:21:33.422Z,2.83
2022-08-01T04:24:05.826Z,2.10
2022-08-01T04:26:35.727Z,2.70
2022-08-01T04:29:05.964Z,2.85
2022-08-01T04:31:33.755Z,2.53
2022-08-01T04:34:01.968Z,2.80
2022-08-01T04:36:31.041Z,2.65
2022-08-01T04:39:01.684Z,2.78
2022-08-01T04:41:32.339Z,3.30
2022-08-01T04:44:00.310Z,2.78
2022-08-01T04:46:29.657Z,2.60
2022-08-01T04:48:57.300Z,2.72
2022-08-01T04:51:24.158Z,2.67
2022-08-01T04:53:51.992Z,2.50
2022-08-01T04:56:21.543Z,3.10
2022-08-01T04:58:48.287Z,2.58
2022-08-01T05:01:15.310Z,2.70
2022-08-01T05:03:42.515Z,2.55
2022-08-01T05:06:09.219Z,2.83
2022-08-01T05:08:37.024Z,2.75
2022-08-01T05:11:03.893Z,2.53
2022-08-01T05:13:30.595Z,2.88
2022-08-01T05:15:57.248Z,2.60
2022-08-01T05:18:27.957Z,2.72
2022-08-01T05:20:55.714Z,2.60
2022-08-01T05:23:34.175Z,2.85
2022-08-01T05:26:09.569Z,2.45
2022-08-01T05:28:36.798Z,2.67
2022-08-01T05:31:04.649Z,2.25
2022-08-01T05:33:31.373Z,2.50
2022-08-01T05:35:58.015Z,2.22
2022-08-01T05:38:24.690Z,2.40
2022-08-01T05:40:51.798Z,2.63
2022-08-01T05:43:18.551Z,2.78
2022-08-01T05:45:46.860Z,3.08
2022-08-01T05:48:13.531Z,2.85
2022-08-01T05:50:40.262Z,2.78
2022-08-01T05:53:06.941Z,2.22
2022-08-01T05:55:33.667Z,3.13
2022-08-01T05:58:00.322Z,3.08
2022-08-01T06:00:27.028Z,2.20
2022-08-01T06:02:53.778Z,2.75
2022-08-01T06:05:20.476Z,2.45
2022-08-01T06:07:47.263Z,2.60
2022-08-01T06:10:14.059Z,2.58
2022-08-01T06:12:40.792Z,2.40
2022-08-01T06:15:08.529Z,3.00
2022-08-01T06:17:35.290Z,2.70
2022-08-01T06:20:02.061Z,2.70
2022-08-01T06:22:28.801Z,2.55
2022-08-01T06:24:55.516Z,2.67
2022-08-01T06:27:22.890Z,3.00
2022-08-01T06:29:53.399Z,2.88
2022-08-01T06:32:27.146Z,2.67
2022-08-01T06:34:55.144Z,2.58
2022-08-01T06:37:22.422Z,2.70
2022-08-01T06:39:50.379Z,2.28
2022-08-01T06:42:17.355Z,2.97
2022-08-01T06:44:44.012Z,2.90
2022-08-01T06:47:10.700Z,2.80
2022-08-01T06:49:37.484Z,2.92
2022-08-01T06:52:05.384Z,2.63
2022-08-01T06:54:32.700Z,2.92
2022-08-01T06:56:59.746Z,3.08
2022-08-01T06:59:26.806Z,3.42
2022-08-01T07:01:53.877Z,2.90
2022-08-01T07:04:20.983Z,2.70
2022-08-01T07:06:48.056Z,2.58
2022-08-01T07:09:15.213Z,2.75
2022-08-01T07:11:42.611Z,2.70
2022-08-01T07:14:09.944Z,2.95
2022-08-01T07:16:37.206Z,2.92
2022-08-01T07:19:04.385Z,2.53
2022-08-01T07:21:40.536Z,2.95
2022-08-01T07:24:13.063Z,2.72
2022-08-01T07:26:52.986Z,3.28
2022-08-01T07:29:21.356Z,3.78
2022-08-01T07:31:48.447Z,3.17
2022-08-01T07:34:15.495Z,3.33
2022-08-01T07:36:42.636Z,3.33
2022-08-01T07:39:09.708Z,3.30
2022-08-01T07:41:53.095Z,3.03
2022-08-01T07:44:23.881Z,3.10
2022-08-01T07:46:55.186Z,3.10
2022-08-01T07:49:22.850Z,2.83
2022-08-01T07:52:03.913Z,3.25
2022-08-01T07:54:33.594Z,2.67
2022-08-01T07:57:01.506Z,3.13
2022-08-01T07:59:28.671Z,3.08
2022-08-01T08:01:55.923Z,3.20
2022-08-01T08:04:23.169Z,3.47
2022-08-01T08:06:50.396Z,2.85
2022-08-01T08:09:17.468Z,2.70
2022-08-01T08:11:48.611Z,3.25
2022-08-01T08:14:16.253Z,2.90
2022-08-01T08:16:43.836Z,2.67
2022-08-01T08:19:11.274Z,2.78
2022-08-01T08:21:38.748Z,3.00
2022-08-01T08:24:25.901Z,3.17
2022-08-01T08:26:56.039Z,3.00
2022-08-01T08:29:23.431Z,3.17
2022-08-01T08:31:52.999Z,2.60
2022-08-01T08:34:20.536Z,3.42
2022-08-01T08:36:48.578Z,2.85
2022-08-01T08:39:19.548Z,3.13
2022-08-01T08:41:49.198Z,3.50
2022-08-01T08:44:17.106Z,2.65
2022-08-01T08:46:45.629Z,2.78
2022-08-01T08:49:13.748Z,2.75
2022-08-01T08:51:42.887Z,3.22
2022-08-01T08:54:12.105Z,2.88
2022-08-01T08:56:39.486Z,2.92
2022-08-01T08:59:06.627Z,3.20
2022-08-01T09:01:35.884Z,3.17
2022-08-01T09:04:04.087Z,2.90
2022-08-01T09:06:31.490Z,2.63
2022-08-01T09:08:58.875Z,2.72
2022-08-01T09:11:26.048Z,2.95
2022-08-01T09:14:08.393Z,3.20
2022-08-01T09:16:36.078Z,3.00
2022-08-01T09:19:40.388Z,2.80
2022-08-01T09:22:09.683Z,2.47
2022-08-01T09:24:37.629Z,2.10
2022-08-01T09:27:21.613Z,2.70
2022-08-01T09:29:54.358Z,2.90
2022-08-01T09:32:34.327Z,2.55
2022-08-01T09:37:37.400Z,2.15
2022-08-01T09:40:04.947Z,2.10
2022-08-01T09:42:32.024Z,2.08
2022-08-01T09:44:59.945Z,2.20
2022-08-01T09:47:38.879Z,1.90
2022-08-01T09:50:10.696Z,2.60
2022-08-01T09:52:38.082Z,2.35
2022-08-01T09:55:08.368Z,2.25
2022-08-01T09:57:35.848Z,2.40
2022-08-01T10:00:03.498Z,1.95
2022-08-01T10:02:32.101Z,2.00
2022-08-01T10:05:03.274Z,2.10
2022-08-01T10:07:43.761Z,2.03
2022-08-01T10:10:15.284Z,2.45
2022-08-01T10:12:45.425Z,2.13
2022-08-01T10:15:16.459Z,1.90
2022-08-01T10:17:51.271Z,1.80
2022-08-01T10:20:30.531Z,1.70
2022-08-01T10:23:05.770Z,2.83
2022-08-01T10:25:43.177Z,2.15
2022-08-01T10:28:24.030Z,1.60
2022-08-01T10:30:53.067Z,1.92
2022-08-01T10:33:51.365Z,1.90
2022-08-01T10:36:10.422Z,2.40
2022-08-01T10:38:37.712Z,2.13
2022-08-01T10:41:06.326Z,2.10
2022-08-01T10:43:35.572Z,1.50
2022-08-01T10:46:03.839Z,1.90
2022-08-01T10:48:43.508Z,1.98
2022-08-01T10:51:18.206Z,1.30
2022-08-01T10:53:49.845Z,2.03
2022-08-01T10:56:18.183Z,1.75
2022-08-01T10:58:47.303Z,1.95
2022-08-01T11:01:21.973Z,1.83
2022-08-01T11:04:06.911Z,2.33
2022-08-01T11:06:34.010Z,1.95
2022-08-01T11:09:21.890Z,2.22
2022-08-01T11:11:58.095Z,1.95
2022-08-01T11:14:26.524Z,1.80
2022-08-01T11:17:21.409Z,2.10
2022-08-01T11:20:07.936Z,1.60
2022-08-01T11:23:02.364Z,1.98
2022-08-01T11:26:03.187Z,1.95
2022-08-01T11:28:32.878Z,2.10
2022-08-01T11:31:11.765Z,1.95
2022-08-01T11:33:45.904Z,2.08
2022-08-01T11:36:14.811Z,2.13
2022-08-01T11:38:46.250Z,1.50
2022-08-01T11:41:21.094Z,1.92
2022-08-01T11:44:09.885Z,1.55
2022-08-01T11:47:13.606Z,1.92
2022-08-01T11:49:49.207Z,1.90
2022-08-01T11:52:30.717Z,1.85
2022-08-01T11:55:10.142Z,1.70
2022-08-01T11:57:38.274Z,1.83
2022-08-01T12:00:18.914Z,1.33
2022-08-01T12:03:04.985Z,1.60
2022-08-01T12:05:34.512Z,1.42
2022-08-01T12:08:02.617Z,1.90
2022-08-01T12:10:49.409Z,1.67
2022-08-01T12:13:18.831Z,1.40
2022-08-01T12:15:46.481Z,1.75
2022-08-01T12:18:13.314Z,2.30
2022-08-01T12:20:55.697Z,1.75
2022-08-01T12:23:23.603Z,1.77
2022-08-01T12:25:54.358Z,1.60
2022-08-01T12:28:21.014Z,1.65
2022-08-01T12:30:49.368Z,1.52
2022-08-01T12:33:19.638Z,1.00
2022-08-01T12:35:46.733Z,1.38
2022-08-01T12:38:20.254Z,1.52
2022-08-01T12:40:51.619Z,1.35
2022-08-01T12:43:28.236Z,1.52
2022-08-01T12:46:00.919Z,2.05
2022-08-01T12:48:28.885Z,1.40
2022-08-01T12:50:58.666Z,1.52
2022-08-01T12:53:26.934Z,1.40
2022-08-01T12:56:06.639Z,1.10
2022-08-01T12:58:34.562Z,1.73
2022-08-01T13:01:07.178Z,1.77
2022-08-01T13:03:34.134Z,1.58
2022-08-01T13:06:01.331Z,1.27
2022-08-01T13:08:34.076Z,1.40
2022-08-01T13:11:06.165Z,1.15
2022-08-01T13:13:48.242Z,1.10
2022-08-01T13:16:34.382Z,1.63
2022-08-01T13:19:04.119Z,1.35
2022-08-01T13:21:34.656Z,1.60
2022-08-01T13:24:27.995Z,1.73
2022-08-01T13:27:04.794Z,1.80
2022-08-01T13:29:35.222Z,1.40
2022-08-01T13:32:28.509Z,1.55
2022-08-01T13:35:08.844Z,1.70
2022-08-01T13:37:39.005Z,1.90
2022-08-01T13:40:07.847Z,1.33
2022-08-01T13:42:34.787Z,1.30
2022-08-01T13:45:02.861Z,1.17
2022-08-01T13:47:31.339Z,1.10
2022-08-01T13:50:01.486Z,1.30
2022-08-01T13:52:31.968Z,1.65
2022-08-01T13:54:59.645Z,1.15
2022-08-01T13:57:26.498Z,1.40
2022-08-01T14:00:08.565Z,1.52
2022-08-01T14:02:35.453Z,1.30
2022-08-01T14:05:02.621Z,1.42
2022-08-01T14:07:29.367Z,1.67
2022-08-01T14:10:18.095Z,1.48
2022-08-01T14:12:45.747Z,1.50
2022-08-01T14:15:12.749Z,1.42
2022-08-01T14:17:40.611Z,2.20
2022-08-01T14:20:14.862Z,1.52
2022-08-01T14:22:41.631Z,1.67
2022-08-01T14:25:09.011Z,2.10
2022-08-01T14:27:37.104Z,2.30
2022-08-01T14:30:07.546Z,2.13
2022-08-01T14:32:34.477Z,1.77
2022-08-01T14:35:02.456Z,2.05
2022-08-01T14:37:31.766Z,1.80
2022-08-01T14:40:05.759Z,2.17
2022-08-01T14:42:34.689Z,1.67
2022-08-01T14:45:01.474Z,1.77
2022-08-01T14:47:28.130Z,2.00
2022-08-01T14:49:54.850Z,1.90
2022-08-01T14:52:22.309Z,1.70
2022-08-01T14:54:49.027Z,1.88
2022-08-01T14:57:18.998Z,1.58
2022-08-01T14:59:45.864Z,1.80
2022-08-01T15:02:13.639Z,1.77
2022-08-01T15:04:40.278Z,2.08
2022-08-01T15:07:06.955Z,2.17
2022-08-01T15:09:33.609Z,2.25
2022-08-01T15:12:00.536Z,1.70
2022-08-01T15:14:45.594Z,2.17
2022-08-01T15:17:12.238Z,1.73
2022-08-01T15:19:42.443Z,2.25
2022-08-01T15:22:09.647Z,1.65
2022-08-01T15:24:36.574Z,1.90
2022-08-01T15:27:03.467Z,2.30
2022-08-01T15:29:30.145Z,2.08
2022-08-01T15:31:56.868Z,2.28
2022-08-01T15:34:24.053Z,1.85
2022-08-01T15:36:50.722Z,1.90
2022-08-01T15:39:17.590Z,2.38
2022-08-01T15:41:44.502Z,2.30
2022-08-01T15:44:11.207Z,2.00
2022-08-01T15:46:37.873Z,2.50
2022-08-01T15:49:06.147Z,2.70
2022-08-01T15:51:33.542Z,2.28
2022-08-01T15:54:03.577Z,2.10
2022-08-01T15:56:30.939Z,1.67
2022-08-01T15:58:57.999Z,1.90
2022-08-01T16:01:26.784Z,2.28
2022-08-01T16:03:55.265Z,2.10
2022-08-01T16:06:22.310Z,1.63
2022-08-01T16:08:49.194Z,2.00
2022-08-01T16:11:16.330Z,1.70
2022-08-01T16:13:43.727Z,1.98
2022-08-01T16:16:11.869Z,1.88
2022-08-01T16:18:39.096Z,2.05
2022-08-01T16:21:05.829Z,2.03
2022-08-01T16:23:32.511Z,1.75
2022-08-01T16:25:59.164Z,2.10
2022-08-01T16:28:26.361Z,1.67
2022-08-01T16:31:12.642Z,1.80
2022-08-01T16:33:50.208Z,2.00
2022-08-01T16:36:21.658Z,1.90
2022-08-01T16:38:49.959Z,1.70
2022-08-01T16:41:19.076Z,1.77
2022-08-01T16:43:46.894Z,1.95
2022-08-01T16:46:22.289Z,1.70
2022-08-01T16:48:49.020Z,2.05
2022-08-01T16:51:15.840Z,2.25
2022-08-01T16:53:42.612Z,2.10
2022-08-01T16:56:09.263Z,1.98
2022-08-01T16:58:36.017Z,2.45
2022-08-01T17:01:59.985Z,1.73
2022-08-01T17:03:52.972Z,2.00
2022-08-01T17:06:22.201Z,1.58
2022-08-01T17:08:49.869Z,1.80
2022-08-01T17:11:17.028Z,1.60
2022-08-01T17:13:44.466Z,1.67
2022-08-01T17:16:11.779Z,1.58
2022-08-01T17:18:39.059Z,1.35
2022-08-01T17:21:05.810Z,1.35
2022-08-01T17:23:33.576Z,1.67
2022-08-01T17:26:00.320Z,1.52
2022-08-01T17:28:27.295Z,1.85
2022-08-01T17:30:54.316Z,1.85
2022-08-01T17:33:21.188Z,2.58
2022-08-01T17:35:48.119Z,1.90
2022-08-01T17:38:14.969Z,1.90
2022-08-01T17:40:42.066Z,1.40
2022-08-01T17:43:08.882Z,1.48
2022-08-01T17:45:39.432Z,2.05
2022-08-01T17:48:18.965Z,1.80
2022-08-01T17:50:47.536Z,1.60
2022-08-01T17:53:15.688Z,1.50
2022-08-01T17:58:50.221Z,1.77
2022-08-01T18:01:17.263Z,3.70
2022-08-01T18:03:44.538Z,2.67
2022-08-01T18:06:19.689Z,1.60
2022-08-01T18:08:50.146Z,1.80
2022-08-01T18:11:22.416Z,2.22
2022-08-01T18:13:51.272Z,1.58
2022-08-01T18:16:18.117Z,1.70
2022-08-01T18:18:44.860Z,2.55
2022-08-01T18:21:12.318Z,2.50
2022-08-01T18:23:39.142Z,2.80
2022-08-01T18:26:08.267Z,2.03
2022-08-01T18:28:41.656Z,2.10
2022-08-01T18:31:14.127Z,1.92
2022-08-01T18:33:40.883Z,1.98
2022-08-01T18:36:07.727Z,2.15
2022-08-01T18:38:44.326Z,2.13
2022-08-01T18:41:11.871Z,2.15
2022-08-01T18:43:38.536Z,1.70
2022-08-01T18:46:06.388Z,1.80
2022-08-01T18:48:33.140Z,1.88
2022-08-01T18:51:00.765Z,1.95
2022-08-01T18:53:28.040Z,1.75
2022-08-01T18:55:54.727Z,1.95
2022-08-01T18:58:22.211Z,2.13
2022-08-01T19:00:49.171Z,2.30
2022-08-01T19:03:16.725Z,3.13
2022-08-01T19:05:43.902Z,2.33
2022-08-01T19:08:11.502Z,2.60
2022-08-01T19:10:41.844Z,2.22
2022-08-01T19:13:08.735Z,2.70
2022-08-01T19:15:36.096Z,3.13
2022-08-01T19:18:03.247Z,2.25
2022-08-01T19:20:30.465Z,2.25
2022-08-01T19:22:57.810Z,2.55
2022-08-01T19:25:24.757Z,3.47
2022-08-01T19:27:52.444Z,3.38
2022-08-01T19:30:19.488Z,3.72
2022-08-01T19:32:47.442Z,3.38
2022-08-01T19:35:16.911Z,3.70
2022-08-01T19:37:50.688Z,3.13
2022-08-01T19:40:26.716Z,3.30
2022-08-01T19:42:55.845Z,2.92
2022-08-01T19:45:22.814Z,2.70
2022-08-01T19:47:56.642Z,3.03
2022-08-01T19:50:26.567Z,3.40
2022-08-01T19:52:55.699Z,3.15
2022-08-01T19:55:25.080Z,3.80
2022-08-01T19:58:26.385Z,2.60
2022-08-01T20:00:40.804Z,3.15
2022-08-01T20:03:09.402Z,2.85
2022-08-01T20:05:37.262Z,2.67
2022-08-01T20:08:06.671Z,2.50
2022-08-01T20:10:34.282Z,4.07
2022-08-01T20:13:02.272Z,3.25
2022-08-01T20:15:29.932Z,2.50
2022-08-01T20:18:00.732Z,3.40
2022-08-01T20:20:27.502Z,3.30
2022-08-01T20:22:57.187Z,3.15
2022-08-01T20:25:37.355Z,3.05
2022-08-01T20:28:11.785Z,3.17
2022-08-01T20:30:40.000Z,3.10
2022-08-01T20:33:08.155Z,3.03
2022-08-01T20:35:51.495Z,2.95
2022-08-01T20:38:23.120Z,3.08
2022-08-01T20:40:58.381Z,3.47
2022-08-01T20:43:27.306Z,3.15
2022-08-01T20:45:54.398Z,2.65
2022-08-01T20:48:21.074Z,2.92
2022-08-01T20:51:07.432Z,3.53
2022-08-01T20:53:40.510Z,2.72
2022-08-01T20:56:26.832Z,2.80
2022-08-01T20:59:06.475Z,3.13
2022-08-01T21:01:39.882Z,3.17
2022-08-01T21:04:16.142Z,3.40
2022-08-01T21:07:03.663Z,3.05
2022-08-01T21:09:36.779Z,3.35
2022-08-01T21:12:07.669Z,2.72
2022-08-01T21:14:52.997Z,3.35
2022-08-01T21:17:42.329Z,3.22
2022-08-01T21:20:11.950Z,3.13
2022-08-01T21:22:57.129Z,2.95
2022-08-01T21:25:27.317Z,2.78
2022-08-01T21:27:55.339Z,3.17
2022-08-01T21:30:25.232Z,2.53
2022-08-01T21:32:53.218Z,2.75
2022-08-01T21:35:23.207Z,2.95
2022-08-01T21:37:52.612Z,3.45
2022-08-01T21:40:23.957Z,3.00
2022-08-01T21:42:51.978Z,2.80
2022-08-01T21:45:25.868Z,2.72
2022-08-01T21:50:20.999Z,3.17
2022-08-01T21:53:11.574Z,3.03
2022-08-01T21:55:56.697Z,2.88
2022-08-01T21:58:44.057Z,2.13
2022-08-01T22:01:17.887Z,2.70
2022-08-01T22:06:15.168Z,2.33
2022-08-01T22:09:06.147Z,2.35
2022-08-01T22:11:37.014Z,1.33
2022-08-01T22:14:06.284Z,2.10
2022-08-01T22:16:33.924Z,1.85
2022-08-01T22:19:02.488Z,2.22
2022-08-01T22:21:29.834Z,1.98
2022-08-01T22:23:57.433Z,1.70
2022-08-01T22:26:28.997Z,1.42
2022-08-01T22:28:56.122Z,1.70
2022-08-01T22:31:23.216Z,1.90
2022-08-01T22:33:50.488Z,2.03
2022-08-01T22:36:18.083Z,2.17
2022-08-01T22:38:44.781Z,1.88
2022-08-01T22:41:19.230Z,1.80
2022-08-01T22:44:10.217Z,1.92
2022-08-01T22:47:01.331Z,1.60
2022-08-01T22:49:35.772Z,1.63
2022-08-01T22:52:24.143Z,1.60
2022-08-01T22:54:55.750Z,1.95
2022-08-01T22:57:31.286Z,1.52
2022-08-01T22:59:59.849Z,1.80
2022-08-01T23:02:30.645Z,1.58
2022-08-01T23:05:05.239Z,1.30
2022-08-01T23:07:39.655Z,1.80
2022-08-01T23:10:07.807Z,1.35
2022-08-01T23:12:34.775Z,1.70
2022-08-01T23:15:02.332Z,1.20
2022-08-01T23:17:30.884Z,1.50
2022-08-01T23:20:03.210Z,1.50
2022-08-01T23:22:34.333Z,1.75
2022-08-01T23:25:04.032Z,1.50
2022-08-01T23:27:52.032Z,1.60
2022-08-01T23:30:26.786Z,1.50
2022-08-01T23:32:54.317Z,1.95
2022-08-01T23:35:21.572Z,1.35
2022-08-01T23:37:50.794Z,1.38
2022-08-01T23:40:17.865Z,1.75
2022-08-01T23:42:44.561Z,1.60
2022-08-01T23:45:11.350Z,1.73
2022-08-01T23:47:38.185Z,1.80
2022-08-01T23:50:07.513Z,1.77
2022-08-01T23:52:34.272Z,1.58
2022-08-01T23:55:14.599Z,1.52
2022-08-01T23:57:41.915Z,1.50
